createdAt,value
2023-01-26T04:24:50.069Z,99579.16
2023-01-26T04:28:25.762Z,99581.81
2023-01-26T04:31:43.752Z,99572.66
2023-01-26T04:34:52.395Z,99580.63
2023-01-26T04:41:15.719Z,99575.31
2023-01-26T04:43:47.488Z,99584.31
2023-01-26T04:44:03.951Z,99579.81
2023-01-26T04:46:19.697Z,99577.16
2023-01-26T04:48:49.190Z,99577.97
2023-01-26T04:54:56.536Z,99580.47
2023-01-26T04:58:37.561Z,99579.81
2023-01-26T05:01:52.517Z,99583.28
2023-01-26T05:05:03.387Z,99580.81
2023-01-26T05:12:45.037Z,99576.03
2023-01-26T07:53:21.585Z,99526.13
2023-01-26T07:57:05.884Z,99529.69
2023-01-26T08:11:51.692Z,99520.69
2023-01-26T08:14:46.800Z,99514.38
2023-01-26T09:31:59.046Z,99476.84
2023-01-26T09:43:52.609Z,99459.81
2023-01-26T09:55:21.342Z,99454.88
2023-01-26T10:06:46.572Z,99452.13
2023-01-26T10:13:37.965Z,99470.44
2023-01-26T10:16:08.493Z,99464.91
2023-01-26T10:18:38.053Z,99456.44
2023-01-26T10:24:49.959Z,99459.59
2023-01-26T10:27:29.175Z,99447.91
2023-01-26T10:30:04.457Z,99457.34
2023-01-26T10:32:48.875Z,99452.84
2023-01-26T10:35:23.353Z,99450.81
2023-01-26T10:42:16.853Z,99432.75
2023-01-26T10:44:43.847Z,99444.22
2023-01-26T10:47:21.525Z,99439.34
2023-01-26T10:49:49.157Z,99438.56
2023-01-26T10:52:19.265Z,99431.81
2023-01-26T10:54:46.807Z,99423.59
2023-01-26T11:00:36.891Z,99415.34
2023-01-26T11:03:26.787Z,99421.69
2023-01-26T11:06:07.592Z,99413.28
2023-01-26T11:08:38.136Z,99397.66
2023-01-26T11:11:08.228Z,99416.31
2023-01-26T11:13:36.174Z,99401.78
2023-01-26T11:16:10.281Z,99400.56
2023-01-26T11:18:47.560Z,99404.69
2023-01-26T11:21:38.258Z,99403.88
2023-01-26T11:24:12.374Z,99396.28
2023-01-26T11:27:01.344Z,99389.28
2023-01-26T11:29:57.605Z,99387.84
2023-01-26T11:32:24.566Z,99388.66
2023-01-26T11:34:51.606Z,99385.81
2023-01-26T11:37:18.896Z,99381.31
2023-01-26T11:39:54.931Z,99396.28
2023-01-26T11:42:24.887Z,99376.34
2023-01-26T11:45:07.782Z,99390.69
2023-01-26T11:47:41.309Z,99383.69
2023-01-26T11:50:27.599Z,99385.53
2023-01-26T11:53:16.175Z,99385.91
2023-01-26T11:55:46.134Z,99382.44
2023-01-26T11:58:13.014Z,99381.41
2023-01-26T12:00:49.860Z,99375.88
2023-01-26T12:03:30.179Z,99378.00
2023-01-26T12:06:02.574Z,99378.44
2023-01-26T12:08:38.422Z,99383.56
2023-01-26T12:11:23.834Z,99384.19
2023-01-26T12:14:09.961Z,99385.66
2023-01-26T12:16:48.330Z,99381.16
2023-01-26T12:19:33.632Z,99368.88
2023-01-26T12:22:07.983Z,99371.16
2023-01-26T12:27:41.537Z,99380.22
2023-01-26T12:30:37.411Z,99382.88
2023-01-26T12:33:11.724Z,99372.63
2023-01-26T12:36:04.426Z,99372.81
2023-01-26T12:39:28.061Z,99371.78
2023-01-26T12:42:17.525Z,99366.03
2023-01-26T12:44:44.822Z,99368.06
2023-01-26T12:47:30.250Z,99369.91
2023-01-26T12:50:07.102Z,99374.22
2023-01-26T12:52:41.458Z,99366.66
2023-01-26T13:07:48.835Z,99367.59
2023-01-26T13:11:18.758Z,99368.41
2023-01-26T13:24:55.372Z,99375.97
2023-01-26T13:32:52.505Z,99383.34
2023-01-26T13:40:33.185Z,99367.06
2023-01-26T13:43:25.881Z,99373.69
2023-01-26T13:46:16.829Z,99374.53
2023-01-26T13:48:49.539Z,99381.69
2023-01-26T13:51:22.847Z,99385.81
2023-01-26T13:54:27.330Z,99376.97
2023-01-26T13:57:18.905Z,99384.16
2023-01-26T14:00:12.774Z,99384.50
2023-01-26T14:02:51.572Z,99382.03
2023-01-26T14:05:23.611Z,99384.72
2023-01-26T14:07:51.739Z,99378.75
2023-01-26T14:10:20.615Z,99379.75
2023-01-26T14:13:04.324Z,99377.50
2023-01-26T14:15:33.192Z,99368.66
2023-01-26T14:18:05.456Z,99377.09
2023-01-26T14:24:36.674Z,99374.88
2023-01-26T14:30:54.905Z,99380.19
2023-01-26T14:33:27.922Z,99375.53
2023-01-26T14:36:06.621Z,99376.16
2023-01-26T14:38:44.773Z,99376.97
2023-01-26T14:41:25.101Z,99379.03
2023-01-26T14:43:59.833Z,99379.56
2023-01-26T14:47:07.181Z,99375.69
2023-01-26T14:49:57.933Z,99376.53
2023-01-26T14:52:30.318Z,99376.53
2023-01-26T14:55:01.620Z,99375.53
2023-01-26T14:57:40.870Z,99367.72
2023-01-26T15:00:48.220Z,99360.72
2023-01-26T15:04:00.784Z,99354.56
2023-01-26T15:08:09.015Z,99366.63
2023-01-26T15:11:16.654Z,99361.13
2023-01-26T15:13:54.637Z,99369.09
2023-01-26T15:16:27.047Z,99373.63
2023-01-26T15:19:21.534Z,99370.31
2023-01-26T15:22:09.176Z,99366.00
2023-01-26T15:24:39.053Z,99369.25
2023-01-26T15:36:05.282Z,99367.75
2023-01-26T15:38:36.900Z,99353.59
2023-01-26T15:41:29.469Z,99357.09
2023-01-26T15:44:14.406Z,99352.16
2023-01-26T15:50:45.700Z,99349.78
2023-01-26T15:53:29.299Z,99353.84
2023-01-26T15:56:31.956Z,99351.19
2023-01-26T15:59:18.587Z,99342.56
2023-01-26T16:06:46.447Z,99338.25
2023-01-26T16:16:30.950Z,99341.13
2023-01-26T16:18:58.209Z,99344.78
2023-01-26T16:25:09.900Z,99345.38
2023-01-26T16:27:38.683Z,99343.72
2023-01-26T16:30:07.261Z,99340.25
2023-01-26T16:32:38.662Z,99349.88
2023-01-26T16:35:19.913Z,99346.78
2023-01-26T16:37:50.027Z,99349.16
2023-01-26T16:40:19.785Z,99348.53
2023-01-26T16:42:54.322Z,99353.66
2023-01-26T16:48:46.254Z,99352.81
2023-01-26T16:51:28.925Z,99356.50
2023-01-26T16:54:06.562Z,99350.16
2023-01-26T17:04:43.076Z,99352.81
2023-01-26T17:12:09.063Z,99347.50
2023-01-26T17:14:36.455Z,99354.66
2023-01-26T17:17:04.044Z,99348.53
2023-01-26T17:19:36.067Z,99347.06
2023-01-26T17:22:15.371Z,99347.25
2023-01-26T17:25:32.463Z,99348.28
2023-01-26T17:27:59.463Z,99350.28
2023-01-26T17:30:40.301Z,99347.81
2023-01-26T17:33:07.487Z,99351.69
2023-01-26T17:35:34.791Z,99353.34
2023-01-26T17:38:02.299Z,99358.66
2023-01-26T17:40:31.885Z,99343.50
2023-01-26T17:43:00.089Z,99353.72
2023-01-26T17:45:30.223Z,99350.41
2023-01-26T17:47:58.687Z,99352.63
2023-01-26T17:50:27.764Z,99341.75
2023-01-26T17:52:54.713Z,99346.06
2023-01-26T18:19:19.155Z,99334.66
2023-01-26T18:22:18.323Z,99345.66
2023-01-26T18:24:51.071Z,99326.22
2023-01-26T18:27:20.714Z,99335.66
2023-01-26T18:31:02.882Z,99325.66
2023-01-26T18:34:15.694Z,99326.09
2023-01-26T18:37:16.212Z,99318.94
2023-01-26T18:39:43.627Z,99316.72
2023-01-26T18:53:48.306Z,99314.13
2023-01-26T19:00:09.669Z,99324.56
2023-01-26T19:06:26.787Z,99296.13
2023-01-26T19:09:04.857Z,99306.78
2023-01-26T19:14:20.607Z,99308.63
2023-01-26T19:16:50.197Z,99303.66
2023-01-26T19:19:17.406Z,99305.84
2023-01-26T19:21:44.521Z,99308.34
2023-01-26T19:24:11.736Z,99310.84
2023-01-26T19:26:39.329Z,99313.69
2023-01-26T19:29:10.048Z,99313.50
2023-01-26T19:31:38.580Z,99310.63
2023-01-26T19:34:07.881Z,99307.69
2023-01-26T19:36:39.423Z,99295.41
2023-01-26T19:39:07.709Z,99299.28
2023-01-26T19:41:38.223Z,99295.59
2023-01-26T19:44:07.724Z,99304.78
2023-01-26T19:47:00.180Z,99297.81
2023-01-26T19:49:28.614Z,99291.47
2023-01-26T19:51:56.798Z,99298.44
2023-01-26T19:54:26.522Z,99296.81
2023-01-26T19:56:53.527Z,99294.34
2023-01-26T19:59:22.779Z,99295.53
2023-01-26T20:01:49.881Z,99297.38
2023-01-26T20:04:17.213Z,99293.69
2023-01-26T20:06:48.590Z,99290.84
2023-01-26T20:09:16.135Z,99288.00
2023-01-26T20:11:43.155Z,99297.00
2023-01-26T20:14:11.160Z,99294.91
2023-01-26T20:16:38.435Z,99291.59
2023-01-26T20:19:09.572Z,99299.78
2023-01-26T20:21:38.945Z,99303.63
2023-01-26T20:24:07.154Z,99299.97
2023-01-26T20:26:34.891Z,99304.47
2023-01-26T20:29:02.251Z,99306.94
2023-01-26T20:31:29.847Z,99299.78
2023-01-26T20:33:56.920Z,99296.47
2023-01-26T20:36:25.260Z,99307.31
2023-01-26T20:38:52.636Z,99298.69
2023-01-26T20:41:24.884Z,99300.09
2023-01-26T20:44:01.131Z,99309.72
2023-01-26T20:46:35.002Z,99303.38
2023-01-26T20:51:47.302Z,99297.88
2023-01-26T20:54:19.089Z,99282.09
2023-01-26T20:56:46.535Z,99293.38
2023-01-26T20:59:13.533Z,99287.44
2023-01-26T21:01:40.594Z,99286.22
2023-01-26T21:04:07.775Z,99287.88
2023-01-26T21:06:35.443Z,99287.03
2023-01-26T21:09:05.368Z,99293.00
2023-01-26T21:11:32.570Z,99285.22
2023-01-26T21:14:03.553Z,99288.06
2023-01-26T21:16:31.916Z,99286.22
2023-01-26T21:18:59.179Z,99286.66
2023-01-26T21:21:26.418Z,99290.16
2023-01-26T21:23:53.702Z,99298.94
2023-01-26T21:26:22.717Z,99291.16
2023-01-26T21:28:52.903Z,99285.03
2023-01-26T21:31:23.948Z,99279.91
2023-01-26T21:33:52.231Z,99280.72
2023-01-26T21:36:24.326Z,99284.75
2023-01-26T21:38:59.870Z,99282.28
2023-01-26T21:41:49.676Z,99292.47
2023-01-26T21:44:20.735Z,99293.84
2023-01-26T21:46:48.361Z,99296.50
2023-01-26T21:53:50.411Z,99287.50
2023-01-26T21:56:17.328Z,99291.19
2023-01-26T21:59:02.493Z,99287.69
2023-01-26T22:01:30.663Z,99294.66
2023-01-26T22:04:02.383Z,99297.50
2023-01-26T22:06:29.624Z,99299.34
2023-01-26T22:08:58.678Z,99304.03
2023-01-26T22:11:26.106Z,99297.25
2023-01-26T22:13:53.290Z,99294.78
2023-01-26T22:16:20.132Z,99294.97
2023-01-26T22:18:48.482Z,99305.78
2023-01-26T22:21:16.072Z,99299.84
2023-01-26T22:23:43.101Z,99295.09
2023-01-26T22:26:17.899Z,99300.97
2023-01-26T22:28:50.334Z,99295.84
2023-01-26T22:31:18.188Z,99299.13
2023-01-26T22:33:45.528Z,99286.47
2023-01-26T22:36:13.039Z,99289.59
2023-01-26T22:38:42.228Z,99285.91
2023-01-26T22:41:14.222Z,99285.91
2023-01-26T22:43:41.581Z,99295.09
2023-01-26T22:46:10.136Z,99284.66
2023-01-26T22:48:37.476Z,99300.78
2023-01-26T22:51:12.058Z,99288.50
2023-01-26T22:53:39.009Z,99295.00
2023-01-26T22:56:06.592Z,99288.56
2023-01-26T22:58:35.222Z,99296.09
2023-01-26T23:01:14.382Z,99294.44
2023-01-26T23:03:44.419Z,99281.16
2023-01-26T23:06:12.556Z,99283.91
2023-01-26T23:08:39.921Z,99283.91
2023-01-26T23:11:06.721Z,99289.84
2023-01-26T23:13:34.349Z,99295.16
2023-01-26T23:16:01.807Z,99304.63
2023-01-26T23:18:29.015Z,99301.22
2023-01-26T23:20:56.162Z,99304.16
2023-01-26T23:23:23.095Z,99291.03
2023-01-26T23:25:53.080Z,99295.34
2023-01-26T23:28:28.022Z,99293.44
2023-01-26T23:30:55.743Z,99298.50
2023-01-26T23:33:23.219Z,99293.72
2023-01-26T23:35:50.039Z,99297.09
2023-01-26T23:38:18.419Z,99298.13
2023-01-26T23:40:48.238Z,99297.09
2023-01-26T23:43:18.811Z,99293.19
2023-01-26T23:45:46.721Z,99299.69
2023-01-26T23:48:14.064Z,99284.13
2023-01-26T23:50:41.298Z,99290.25
2023-01-26T23:53:08.184Z,99290.44
2023-01-26T23:55:39.586Z,99283.47
2023-01-26T23:58:06.383Z,99277.53
